Time;durP1;ratioP1;P1;durP2;ratioP2;P2;SDS_P1;SDS_P2;PMS_P1;PMS_P2;Temp;Humidity;BMP_temperature;BMP_pressure;BME280_temperature;BME280_humidity;BME280_pressure;Samples;Min_cycle;Max_cycle;Signal;HPM_P1;HPM_P2
2023/05/26 00:00:53;;;;;;;;;;;9.50;99.90;;;;;;5134129;27;19978;-48
2023/05/26 00:03:18;;;;;;;;;;;9.50;99.90;;;;;;5135455;27;20460;-44
2023/05/26 00:05:44;;;;;;;;;;;9.40;99.90;;;;;;5129076;27;19919;-45
2023/05/26 00:08:10;;;;;;;;;;;9.40;99.90;;;;;;5129402;27;19968;-44
2023/05/26 00:10:35;;;;;;;;;;;9.40;99.90;;;;;;5132952;27;20353;-45
2023/05/26 00:13:01;;;;;;;;;;;9.30;99.90;;;;;;5133304;27;20478;-45
2023/05/26 00:15:26;;;;;;;;;;;9.30;99.90;;;;;;5135267;27;19915;-44
2023/05/26 00:17:52;;;;;;;;;;;9.30;99.90;;;;;;5133224;27;20366;-44
2023/05/26 00:20:17;;;;;;;;;;;9.20;99.90;;;;;;5134196;27;19915;-44
2023/05/26 00:22:43;;;;;;;;;;;9.20;99.90;;;;;;5120357;27;19920;-44
2023/05/26 00:25:08;;;;;;;;;;;9.20;99.90;;;;;;5130341;27;19912;-44
2023/05/26 00:27:34;;;;;;;;;;;9.10;99.90;;;;;;5133143;27;20079;-44
2023/05/26 00:29:59;;;;;;;;;;;9.10;99.90;;;;;;5134833;27;19965;-45
2023/05/26 00:32:25;;;;;;;;;;;9.10;99.90;;;;;;5133597;27;20286;-45
2023/05/26 00:34:51;;;;;;;;;;;9.10;99.90;;;;;;5134371;27;19911;-45
2023/05/26 00:37:16;;;;;;;;;;;9.10;99.90;;;;;;5129304;27;19918;-45
2023/05/26 00:39:42;;;;;;;;;;;9.00;99.90;;;;;;5123501;27;19912;-45
2023/05/26 00:42:07;;;;;;;;;;;9.00;99.90;;;;;;5113542;28;20358;-45
2023/05/26 00:44:33;;;;;;;;;;;9.00;99.90;;;;;;5114104;28;19931;-44
2023/05/26 00:46:58;;;;;;;;;;;9.00;99.90;;;;;;5112098;27;20010;-46
2023/05/26 00:49:24;;;;;;;;;;;8.90;99.90;;;;;;5134175;27;20322;-46
2023/05/26 00:51:50;;;;;;;;;;;8.90;99.90;;;;;;5132357;27;20008;-44
2023/05/26 00:54:17;;;;;;;;;;;8.80;99.90;;;;;;5130478;27;19912;-51
2023/05/26 00:56:42;;;;;;;;;;;8.80;99.90;;;;;;5133719;27;19919;-48
2023/05/26 00:59:10;;;;;;;;;;;8.80;99.90;;;;;;5133962;27;19907;-45
2023/05/26 01:01:35;;;;;;;;;;;8.70;99.90;;;;;;5133076;27;20362;-45
2023/05/26 01:04:01;;;;;;;;;;;8.70;99.90;;;;;;5131852;27;20005;-49
2023/05/26 01:06:26;;;;;;;;;;;8.70;99.90;;;;;;5133728;27;19915;-45
2023/05/26 01:08:52;;;;;;;;;;;8.60;99.90;;;;;;5127839;27;19912;-45
2023/05/26 01:11:22;;;;;;;;;;;8.60;99.90;;;;;;5133882;27;19915;-45
2023/05/26 01:13:52;;;;;;;;;;;8.60;99.90;;;;;;5132144;27;19960;-46
2023/05/26 01:16:21;;;;;;;;;;;8.60;99.90;;;;;;5133882;27;20362;-46
2023/05/26 01:19:16;;;;;;;;;;;8.60;99.90;;;;;;5132284;27;19912;-45
2023/05/26 01:21:43;;;;;;;;;;;8.50;99.90;;;;;;5034843;28;20003;-45
2023/05/26 01:24:11;;;;;;;;;;;8.40;99.90;;;;;;5121434;27;20358;-44
2023/05/26 01:26:59;;;;;;;;;;;8.30;99.90;;;;;;5131030;27;19924;-45
2023/05/26 01:29:25;;;;;;;;;;;8.30;99.90;;;;;;5116652;27;20297;-49
2023/05/26 01:31:51;;;;;;;;;;;8.20;99.90;;;;;;5133463;27;20433;-45
2023/05/26 01:34:16;;;;;;;;;;;8.20;99.90;;;;;;5132680;27;20401;-44
2023/05/26 01:36:42;;;;;;;;;;;8.10;99.90;;;;;;5131172;27;19926;-44
2023/05/26 01:39:08;;;;;;;;;;;8.10;99.90;;;;;;5124346;27;20412;-43
2023/05/26 01:41:34;;;;;;;;;;;8.10;99.90;;;;;;5123122;27;20405;-45
2023/05/26 01:44:02;;;;;;;;;;;8.10;99.90;;;;;;5114235;27;21479;-45
2023/05/26 01:46:46;;;;;;;;;;;8.10;99.90;;;;;;5132263;27;20370;-44
2023/05/26 01:49:13;;;;;;;;;;;8.20;99.90;;;;;;5130554;27;19916;-44
2023/05/26 01:51:39;;;;;;;;;;;8.20;99.90;;;;;;5131574;27;20080;-44
2023/05/26 01:54:07;;;;;;;;;;;8.20;99.90;;;;;;5119298;27;20301;-44
2023/05/26 01:56:33;;;;;;;;;;;8.20;99.90;;;;;;5132185;27;19919;-45
2023/05/26 01:59:00;;;;;;;;;;;8.10;99.90;;;;;;5132997;27;19915;-44
2023/05/26 02:01:26;;;;;;;;;;;8.10;99.90;;;;;;5132209;27;19911;-46
2023/05/26 02:03:52;;;;;;;;;;;8.00;99.90;;;;;;5131476;27;19908;-44
2023/05/26 02:06:17;;;;;;;;;;;8.00;99.90;;;;;;5131078;27;19922;-44
2023/05/26 02:08:43;;;;;;;;;;;8.00;99.90;;;;;;5125272;28;19973;-46
2023/05/26 02:11:08;;;;;;;;;;;7.90;99.90;;;;;;5129070;28;19915;-43
2023/05/26 02:13:34;;;;;;;;;;;7.90;99.90;;;;;;5132757;28;19922;-44
2023/05/26 02:15:59;;;;;;;;;;;7.90;99.90;;;;;;5131031;28;20370;-44
2023/05/26 02:18:25;;;;;;;;;;;7.90;99.90;;;;;;5133412;27;19959;-46
2023/05/26 02:20:50;;;;;;;;;;;7.80;99.90;;;;;;5134701;27;19912;-44
2023/05/26 02:23:16;;;;;;;;;;;7.80;99.90;;;;;;5135064;27;19911;-45
2023/05/26 02:25:41;;;;;;;;;;;7.80;99.90;;;;;;5133729;27;19919;-44
2023/05/26 02:28:07;;;;;;;;;;;7.80;99.90;;;;;;5135683;27;20365;-43
2023/05/26 02:30:32;;;;;;;;;;;7.90;99.90;;;;;;5134281;27;19912;-46
2023/05/26 02:32:58;;;;;;;;;;;7.90;99.90;;;;;;5135293;27;19919;-44
2023/05/26 02:35:23;;;;;;;;;;;7.80;99.90;;;;;;5134585;27;20374;-45
2023/05/26 02:37:49;;;;;;;;;;;7.80;99.90;;;;;;5131796;27;19911;-43
2023/05/26 02:40:15;;;;;;;;;;;7.80;99.90;;;;;;5131390;27;20014;-44
2023/05/26 02:42:40;;;;;;;;;;;7.80;99.90;;;;;;5135706;27;19915;-49
2023/05/26 02:45:06;;;;;;;;;;;7.80;99.90;;;;;;5136652;27;19907;-44
2023/05/26 02:47:32;;;;;;;;;;;7.70;99.90;;;;;;5136137;27;19919;-43
2023/05/26 02:49:57;;;;;;;;;;;7.70;99.90;;;;;;5135276;27;19911;-44
2023/05/26 02:52:23;;;;;;;;;;;7.70;99.90;;;;;;5130960;27;19915;-45
2023/05/26 02:54:50;;;;;;;;;;;7.60;99.90;;;;;;5132651;27;19912;-47
2023/05/26 02:57:15;;;;;;;;;;;7.60;99.90;;;;;;5136429;27;19946;-44
2023/05/26 02:59:40;;;;;;;;;;;7.60;99.90;;;;;;5127245;27;19951;-48
2023/05/26 03:02:06;;;;;;;;;;;7.60;99.90;;;;;;5118855;27;19916;-46
2023/05/26 03:04:31;;;;;;;;;;;7.60;99.90;;;;;;5121870;27;19919;-45
2023/05/26 03:06:57;;;;;;;;;;;7.50;99.90;;;;;;5132716;27;19926;-48
2023/05/26 03:09:22;;;;;;;;;;;7.50;99.90;;;;;;5127632;27;19918;-47
2023/05/26 03:11:48;;;;;;;;;;;7.50;99.90;;;;;;5126224;27;20306;-46
2023/05/26 03:14:13;;;;;;;;;;;7.50;99.90;;;;;;5120147;27;20006;-45
2023/05/26 03:16:40;;;;;;;;;;;7.40;99.90;;;;;;5119075;27;20362;-44
2023/05/26 03:19:05;;;;;;;;;;;7.30;99.90;;;;;;5115528;28;19915;-45
2023/05/26 03:21:31;;;;;;;;;;;7.30;99.90;;;;;;5114747;28;19911;-44
2023/05/26 03:23:57;;;;;;;;;;;7.30;99.90;;;;;;5117675;27;19919;-43
2023/05/26 03:26:23;;;;;;;;;;;7.20;99.90;;;;;;5133912;27;19923;-47
2023/05/26 03:28:48;;;;;;;;;;;7.20;99.90;;;;;;5133589;27;19912;-44
2023/05/26 03:31:13;;;;;;;;;;;7.20;99.90;;;;;;5135408;27;19914;-44
2023/05/26 03:33:39;;;;;;;;;;;7.10;99.90;;;;;;5132775;27;19920;-45
2023/05/26 03:36:05;;;;;;;;;;;7.10;99.90;;;;;;5134892;27;20293;-47
2023/05/26 03:38:30;;;;;;;;;;;7.10;99.90;;;;;;5130032;27;19991;-45
2023/05/26 03:40:58;;;;;;;;;;;7.00;99.90;;;;;;5125319;27;20343;-43
2023/05/26 03:43:23;;;;;;;;;;;7.00;99.90;;;;;;5123305;27;20433;-44
2023/05/26 03:45:49;;;;;;;;;;;7.00;99.90;;;;;;5123743;27;19912;-43
2023/05/26 03:48:15;;;;;;;;;;;7.00;99.90;;;;;;5126736;27;20382;-43
2023/05/26 03:50:41;;;;;;;;;;;7.00;99.90;;;;;;5123571;27;19907;-47
2023/05/26 03:53:07;;;;;;;;;;;7.00;99.90;;;;;;5122887;27;19907;-45
2023/05/26 03:55:33;;;;;;;;;;;7.00;99.90;;;;;;5132634;27;20433;-52
2023/05/26 03:57:59;;;;;;;;;;;6.90;99.90;;;;;;5133409;27;19911;-45
2023/05/26 04:00:28;;;;;;;;;;;6.90;99.90;;;;;;5127596;27;19916;-45
2023/05/26 04:02:54;;;;;;;;;;;6.90;99.90;;;;;;5113614;27;19916;-45
2023/05/26 04:05:19;;;;;;;;;;;6.90;99.90;;;;;;5131112;27;20362;-45
2023/05/26 04:07:46;;;;;;;;;;;6.90;99.90;;;;;;5132044;27;19970;-44
2023/05/26 04:10:11;;;;;;;;;;;6.90;99.90;;;;;;5130072;27;20035;-45
2023/05/26 04:12:37;;;;;;;;;;;6.90;99.90;;;;;;5126825;27;19919;-45
2023/05/26 04:15:03;;;;;;;;;;;6.90;99.90;;;;;;5131610;27;19956;-47
2023/05/26 04:17:28;;;;;;;;;;;6.80;99.90;;;;;;5134449;27;19908;-46
2023/05/26 04:19:54;;;;;;;;;;;6.80;99.90;;;;;;5134530;27;19912;-45
2023/05/26 04:22:19;;;;;;;;;;;6.90;99.90;;;;;;5127158;27;19918;-44
2023/05/26 04:24:45;;;;;;;;;;;6.90;99.90;;;;;;5128048;27;19911;-47
2023/05/26 04:27:10;;;;;;;;;;;6.90;99.90;;;;;;5114405;27;19998;-43
2023/05/26 04:29:36;;;;;;;;;;;6.90;99.90;;;;;;5114282;28;19915;-45
2023/05/26 04:32:02;;;;;;;;;;;6.90;99.90;;;;;;5118159;27;19922;-44
2023/05/26 04:34:28;;;;;;;;;;;7.00;99.90;;;;;;5134434;27;19907;-46
2023/05/26 04:36:54;;;;;;;;;;;7.00;99.90;;;;;;5132251;27;19919;-44
2023/05/26 04:39:19;;;;;;;;;;;7.10;99.90;;;;;;5132162;27;19955;-46
2023/05/26 04:41:46;;;;;;;;;;;7.10;99.90;;;;;;5128990;27;19911;-46
2023/05/26 04:44:12;;;;;;;;;;;7.20;99.90;;;;;;5134632;27;19908;-44
2023/05/26 04:46:38;;;;;;;;;;;7.20;99.90;;;;;;5132865;27;19916;-46
2023/05/26 04:49:04;;;;;;;;;;;7.30;99.90;;;;;;5125756;27;19957;-44
2023/05/26 04:51:31;;;;;;;;;;;7.30;99.90;;;;;;5120559;27;20353;-44
2023/05/26 04:53:57;;;;;;;;;;;7.30;99.90;;;;;;5133434;27;19918;-44
2023/05/26 04:56:22;;;;;;;;;;;7.30;99.90;;;;;;5125593;27;19908;-48
2023/05/26 04:58:48;;;;;;;;;;;7.40;99.90;;;;;;5121891;27;20422;-45
2023/05/26 05:01:13;;;;;;;;;;;7.40;99.90;;;;;;5127984;27;19944;-44
2023/05/26 05:03:42;;;;;;;;;;;7.50;99.90;;;;;;5133827;27;20251;-49
2023/05/26 05:06:08;;;;;;;;;;;7.50;99.90;;;;;;5131410;27;19973;-44
2023/05/26 05:08:34;;;;;;;;;;;7.60;99.90;;;;;;5134036;27;19931;-47
2023/05/26 05:10:59;;;;;;;;;;;7.70;99.90;;;;;;5128750;27;19908;-44
2023/05/26 05:13:25;;;;;;;;;;;7.70;99.90;;;;;;5130923;27;19911;-44
2023/05/26 05:15:50;;;;;;;;;;;7.80;99.90;;;;;;5132792;27;20361;-47
2023/05/26 05:18:16;;;;;;;;;;;7.90;99.90;;;;;;5133899;27;19911;-44
2023/05/26 05:20:41;;;;;;;;;;;8.00;99.90;;;;;;5130737;27;19994;-49
2023/05/26 05:23:07;;;;;;;;;;;8.10;99.90;;;;;;5131646;27;20068;-45
2023/05/26 05:25:32;;;;;;;;;;;8.10;99.90;;;;;;5126327;27;19908;-45
2023/05/26 05:27:58;;;;;;;;;;;8.20;99.90;;;;;;5112204;28;20415;-44
2023/05/26 05:30:23;;;;;;;;;;;8.40;99.90;;;;;;5118787;27;19907;-47
2023/05/26 05:32:49;;;;;;;;;;;8.40;99.90;;;;;;5132617;27;20331;-46
2023/05/26 05:35:14;;;;;;;;;;;8.50;99.90;;;;;;5132857;27;19919;-46
2023/05/26 05:37:40;;;;;;;;;;;8.60;99.90;;;;;;5131611;27;20007;-44
2023/05/26 05:40:05;;;;;;;;;;;8.70;99.90;;;;;;5128889;27;19965;-46
2023/05/26 05:42:31;;;;;;;;;;;8.80;99.90;;;;;;5114981;27;19912;-43
2023/05/26 05:44:56;;;;;;;;;;;8.90;99.90;;;;;;5112371;28;19908;-44
2023/05/26 05:47:22;;;;;;;;;;;9.00;99.90;;;;;;5122101;27;20382;-46
2023/05/26 05:49:47;;;;;;;;;;;9.10;99.90;;;;;;5131434;27;19907;-43
2023/05/26 05:52:14;;;;;;;;;;;9.20;99.90;;;;;;5132132;27;19960;-45
2023/05/26 05:54:39;;;;;;;;;;;9.20;99.90;;;;;;5125087;27;20384;-46
2023/05/26 05:57:05;;;;;;;;;;;9.40;99.90;;;;;;5129920;27;19911;-45
2023/05/26 05:59:31;;;;;;;;;;;9.40;99.90;;;;;;5124737;27;19991;-44
2023/05/26 06:01:56;;;;;;;;;;;9.50;99.90;;;;;;5129755;27;19949;-45
2023/05/26 06:04:22;;;;;;;;;;;9.60;99.90;;;;;;5121298;27;19960;-45
2023/05/26 06:06:49;;;;;;;;;;;9.70;99.90;;;;;;5121498;27;19972;-45
2023/05/26 06:09:15;;;;;;;;;;;9.80;99.90;;;;;;5126011;28;19918;-45
2023/05/26 06:11:40;;;;;;;;;;;9.80;99.90;;;;;;5131071;28;19912;-46
2023/05/26 06:14:06;;;;;;;;;;;9.90;99.90;;;;;;5129538;28;20434;-45
2023/05/26 06:16:32;;;;;;;;;;;10.00;99.90;;;;;;5132240;28;19916;-47
2023/05/26 06:18:57;;;;;;;;;;;10.00;99.90;;;;;;5116084;27;19919;-45
2023/05/26 06:21:23;;;;;;;;;;;10.10;99.90;;;;;;5131276;28;19911;-45
2023/05/26 06:23:49;;;;;;;;;;;10.20;99.90;;;;;;5130118;28;19908;-44
2023/05/26 06:26:14;;;;;;;;;;;10.20;99.90;;;;;;5113756;28;20535;-47
2023/05/26 06:28:39;;;;;;;;;;;10.30;99.90;;;;;;5112338;28;19912;-45
2023/05/26 06:31:05;;;;;;;;;;;10.40;99.90;;;;;;5128415;28;20387;-45
2023/05/26 06:33:31;;;;;;;;;;;10.50;99.90;;;;;;5116168;28;19923;-47
2023/05/26 06:35:56;;;;;;;;;;;10.50;99.90;;;;;;5121850;28;20290;-46
2023/05/26 06:38:21;;;;;;;;;;;10.60;99.90;;;;;;5132208;28;20012;-46
2023/05/26 06:40:47;;;;;;;;;;;10.70;99.90;;;;;;5126866;28;20319;-44
2023/05/26 06:43:13;;;;;;;;;;;10.80;99.90;;;;;;5128611;28;20416;-45
2023/05/26 06:45:38;;;;;;;;;;;10.90;99.90;;;;;;5128310;28;19911;-44
2023/05/26 06:48:04;;;;;;;;;;;10.90;99.90;;;;;;5132004;28;19930;-45
2023/05/26 06:50:29;;;;;;;;;;;11.00;99.90;;;;;;5120680;28;20404;-46
2023/05/26 06:52:55;;;;;;;;;;;11.10;99.90;;;;;;5111732;28;19933;-44
2023/05/26 06:55:20;;;;;;;;;;;11.30;99.90;;;;;;5112806;28;19912;-45
2023/05/26 06:57:46;;;;;;;;;;;11.40;99.90;;;;;;5111943;28;20221;-44
2023/05/26 07:00:12;;;;;;;;;;;11.50;99.90;;;;;;5117750;28;19956;-46
2023/05/26 07:02:38;;;;;;;;;;;11.60;99.90;;;;;;5125774;28;19911;-47
2023/05/26 07:05:04;;;;;;;;;;;11.80;99.90;;;;;;5130463;27;19998;-46
2023/05/26 07:07:29;;;;;;;;;;;11.80;99.90;;;;;;5115301;28;20330;-45
2023/05/26 07:09:55;;;;;;;;;;;11.90;99.90;;;;;;5124571;27;19926;-47
2023/05/26 07:12:21;;;;;;;;;;;12.00;99.90;;;;;;5130901;27;19911;-49
2023/05/26 07:14:46;;;;;;;;;;;12.00;99.90;;;;;;5134549;27;19912;-47
2023/05/26 07:17:12;;;;;;;;;;;12.10;99.90;;;;;;5121592;27;20373;-45
2023/05/26 07:19:37;;;;;;;;;;;12.00;99.90;;;;;;5116830;27;19919;-48
2023/05/26 07:22:03;;;;;;;;;;;12.00;99.90;;;;;;5131300;27;20271;-46
2023/05/26 07:24:28;;;;;;;;;;;12.00;99.90;;;;;;5134138;27;19974;-44
2023/05/26 07:26:54;;;;;;;;;;;11.90;99.90;;;;;;5130075;27;19983;-48
2023/05/26 07:29:20;;;;;;;;;;;11.80;99.90;;;;;;5129938;27;19911;-45
2023/05/26 07:31:45;;;;;;;;;;;11.80;99.90;;;;;;5133321;27;20321;-46
2023/05/26 07:34:11;;;;;;;;;;;11.80;99.90;;;;;;5132814;27;19977;-47
2023/05/26 07:36:36;;;;;;;;;;;11.90;99.90;;;;;;5121780;27;20397;-47
2023/05/26 07:39:02;;;;;;;;;;;11.90;99.90;;;;;;5115613;27;19956;-45
2023/05/26 07:41:27;;;;;;;;;;;12.00;99.90;;;;;;5123234;27;19933;-46
2023/05/26 07:43:53;;;;;;;;;;;12.00;99.90;;;;;;5114794;28;19907;-46
2023/05/26 07:46:18;;;;;;;;;;;12.10;99.90;;;;;;5133297;27;19933;-46
2023/05/26 07:48:44;;;;;;;;;;;12.20;99.90;;;;;;5126914;27;19923;-46
2023/05/26 07:51:09;;;;;;;;;;;12.30;99.90;;;;;;5131047;27;19963;-46
2023/05/26 07:53:35;;;;;;;;;;;12.40;99.90;;;;;;5135835;27;19961;-44
2023/05/26 07:56:01;;;;;;;;;;;12.50;99.90;;;;;;5117455;27;19919;-47
2023/05/26 07:58:26;;;;;;;;;;;12.60;99.90;;;;;;5126754;27;20079;-46
2023/05/26 08:00:51;;;;;;;;;;;12.70;99.90;;;;;;5133134;27;19968;-46
2023/05/26 08:03:17;;;;;;;;;;;12.70;99.90;;;;;;5134490;27;20384;-46
2023/05/26 08:05:43;;;;;;;;;;;12.80;99.90;;;;;;5131306;27;20127;-45
2023/05/26 08:08:09;;;;;;;;;;;12.80;99.90;;;;;;5129323;27;20323;-45
2023/05/26 08:10:35;;;;;;;;;;;12.90;99.90;;;;;;5129753;27;19916;-50
2023/05/26 08:13:01;;;;;;;;;;;13.00;99.90;;;;;;5134765;27;19907;-45
2023/05/26 08:15:26;;;;;;;;;;;13.10;99.90;;;;;;5134729;27;19915;-46
2023/05/26 08:17:52;;;;;;;;;;;13.10;99.90;;;;;;5123702;27;19998;-48
2023/05/26 08:20:18;;;;;;;;;;;13.10;99.90;;;;;;5125389;27;20281;-48
2023/05/26 08:22:43;;;;;;;;;;;13.30;99.90;;;;;;5132795;27;20392;-46
2023/05/26 08:25:09;;;;;;;;;;;13.40;99.90;;;;;;5127575;27;20014;-47
2023/05/26 08:27:34;;;;;;;;;;;13.50;99.90;;;;;;5131466;27;19938;-46
2023/05/26 08:29:59;;;;;;;;;;;13.60;99.90;;;;;;5131187;27;19926;-47
2023/05/26 08:32:25;;;;;;;;;;;13.60;99.90;;;;;;5132315;27;19911;-47
2023/05/26 08:34:50;;;;;;;;;;;13.60;99.90;;;;;;5127504;27;20403;-46
2023/05/26 08:37:18;;;;;;;;;;;13.70;99.90;;;;;;5129003;27;20000;-47
2023/05/26 08:39:44;;;;;;;;;;;13.70;99.90;;;;;;5114326;28;19907;-45
2023/05/26 08:42:15;;;;;;;;;;;13.70;99.90;;;;;;5121640;27;20053;-46
2023/05/26 08:44:40;;;;;;;;;;;13.80;99.90;;;;;;5111258;27;20286;-47
2023/05/26 08:47:06;;;;;;;;;;;13.90;99.90;;;;;;5130511;27;19919;-47
2023/05/26 08:49:39;;;;;;;;;;;14.00;99.90;;;;;;5134417;27;19912;-44
2023/05/26 08:52:14;;;;;;;;;;;14.00;99.90;;;;;;5129262;27;20331;-48
2023/05/26 08:54:39;;;;;;;;;;;14.20;99.90;;;;;;5114988;27;20006;-48
2023/05/26 08:57:06;;;;;;;;;;;14.30;99.90;;;;;;5125197;27;19943;-49
2023/05/26 08:59:32;;;;;;;;;;;14.30;98.90;;;;;;5128345;27;19918;-47
2023/05/26 09:01:57;;;;;;;;;;;14.40;99.10;;;;;;5113249;28;19916;-47
2023/05/26 09:04:25;;;;;;;;;;;14.50;98.70;;;;;;5119381;27;19943;-50
2023/05/26 09:06:50;;;;;;;;;;;14.60;98.10;;;;;;5112727;28;20007;-46
2023/05/26 09:09:16;;;;;;;;;;;14.70;98.60;;;;;;5117130;27;20384;-50
2023/05/26 09:11:42;;;;;;;;;;;14.70;98.00;;;;;;5127333;27;19918;-46
2023/05/26 09:14:08;;;;;;;;;;;14.80;97.20;;;;;;5120727;27;19912;-45
2023/05/26 09:16:33;;;;;;;;;;;14.90;97.30;;;;;;5129389;27;20430;-46
2023/05/26 09:19:00;;;;;;;;;;;15.00;96.60;;;;;;5127641;27;19916;-45
2023/05/26 09:21:27;;;;;;;;;;;15.00;96.80;;;;;;5115775;27;19912;-46
2023/05/26 09:23:55;;;;;;;;;;;15.10;95.80;;;;;;5114819;27;19912;-48
2023/05/26 09:26:30;;;;;;;;;;;15.10;94.60;;;;;;5115687;27;19920;-44
2023/05/26 09:28:56;;;;;;;;;;;15.20;95.10;;;;;;5122039;27;19918;-45
2023/05/26 09:31:22;;;;;;;;;;;15.20;94.90;;;;;;5117121;27;19912;-45
2023/05/26 09:33:48;;;;;;;;;;;15.30;95.70;;;;;;5122020;27;19920;-46
2023/05/26 09:36:16;;;;;;;;;;;15.40;94.80;;;;;;5120972;27;19931;-46
2023/05/26 09:38:43;;;;;;;;;;;15.40;94.90;;;;;;5117983;27;19919;-46
2023/05/26 09:41:08;;;;;;;;;;;15.50;94.60;;;;;;5121577;27;19961;-48
2023/05/26 09:43:34;;;;;;;;;;;15.60;94.30;;;;;;5131024;27;20321;-45
2023/05/26 09:46:00;;;;;;;;;;;15.60;93.60;;;;;;5119757;27;19955;-48
2023/05/26 09:48:26;;;;;;;;;;;15.70;93.10;;;;;;5125579;27;20386;-46
2023/05/26 09:50:52;;;;;;;;;;;15.80;91.80;;;;;;5122517;27;20002;-44
2023/05/26 09:53:17;;;;;;;;;;;15.90;92.90;;;;;;5119569;27;19950;-47
2023/05/26 09:55:44;;;;;;;;;;;15.90;92.20;;;;;;5126231;27;19994;-47
2023/05/26 09:58:11;;;;;;;;;;;16.00;91.80;;;;;;5127047;27;19912;-45
2023/05/26 10:00:39;;;;;;;;;;;16.00;91.70;;;;;;5126497;27;19916;-46
2023/05/26 10:03:05;;;;;;;;;;;16.10;91.70;;;;;;5118271;27;19919;-50
2023/05/26 10:05:36;;;;;;;;;;;16.10;89.40;;;;;;5131855;27;19912;-51
2023/05/26 10:08:03;;;;;;;;;;;16.20;90.40;;;;;;5118016;27;19920;-47
2023/05/26 10:10:30;;;;;;;;;;;16.20;89.70;;;;;;5116707;28;20022;-46
2023/05/26 10:12:56;;;;;;;;;;;16.20;90.20;;;;;;5131964;28;20007;-46
2023/05/26 10:15:21;;;;;;;;;;;16.30;88.90;;;;;;5132133;28;19908;-54
2023/05/26 10:17:47;;;;;;;;;;;16.30;90.10;;;;;;5131733;28;20420;-47
2023/05/26 10:20:13;;;;;;;;;;;16.40;90.00;;;;;;5130128;28;19923;-46
2023/05/26 10:22:48;;;;;;;;;;;16.50;89.30;;;;;;5131205;28;19946;-46
2023/05/26 10:25:15;;;;;;;;;;;16.60;89.10;;;;;;5132937;28;20373;-44
2023/05/26 10:27:50;;;;;;;;;;;16.60;90.10;;;;;;5131285;28;20438;-47
2023/05/26 10:30:16;;;;;;;;;;;16.70;89.60;;;;;;5127487;28;19918;-48
2023/05/26 10:32:47;;;;;;;;;;;16.80;88.50;;;;;;5129616;28;19918;-48
2023/05/26 10:35:22;;;;;;;;;;;16.90;86.90;;;;;;5126381;28;19930;-46
2023/05/26 10:37:49;;;;;;;;;;;16.90;87.00;;;;;;5130277;28;19918;-46
2023/05/26 10:40:28;;;;;;;;;;;16.90;86.90;;;;;;5124593;27;20196;-45
2023/05/26 10:43:00;;;;;;;;;;;16.90;85.60;;;;;;5115880;27;20259;-46
2023/05/26 10:45:29;;;;;;;;;;;17.00;84.70;;;;;;5135724;27;19919;-46
2023/05/26 10:47:57;;;;;;;;;;;17.10;86.00;;;;;;5126573;27;19962;-49
2023/05/26 10:50:22;;;;;;;;;;;17.10;84.50;;;;;;5133786;27;19911;-50
2023/05/26 10:52:50;;;;;;;;;;;17.20;84.60;;;;;;5131540;27;19914;-46
2023/05/26 10:55:27;;;;;;;;;;;17.10;82.70;;;;;;5134309;27;20993;-46
2023/05/26 10:57:53;;;;;;;;;;;17.20;83.30;;;;;;5133624;27;20147;-48
2023/05/26 11:00:19;;;;;;;;;;;17.20;84.20;;;;;;5129001;27;19918;-47
2023/05/26 11:02:45;;;;;;;;;;;17.30;83.30;;;;;;5130800;27;20334;-47
2023/05/26 11:05:31;;;;;;;;;;;17.40;85.10;;;;;;5129885;27;19999;-45
2023/05/26 11:07:56;;;;;;;;;;;17.50;85.00;;;;;;5133757;27;19919;-47
2023/05/26 11:10:22;;;;;;;;;;;17.60;83.40;;;;;;5132118;27;20362;-51
2023/05/26 11:12:48;;;;;;;;;;;17.60;82.30;;;;;;5124043;27;20405;-47
2023/05/26 11:15:23;;;;;;;;;;;17.70;82.90;;;;;;5116514;27;19922;-44
2023/05/26 11:17:55;;;;;;;;;;;17.80;82.30;;;;;;5132249;27;19918;-51
2023/05/26 11:20:23;;;;;;;;;;;17.90;83.10;;;;;;5134386;27;19923;-44
2023/05/26 11:22:50;;;;;;;;;;;18.00;83.20;;;;;;5134865;27;19916;-49
2023/05/26 11:25:16;;;;;;;;;;;18.00;80.40;;;;;;5134825;27;19914;-47
2023/05/26 11:27:45;;;;;;;;;;;18.10;81.90;;;;;;5135281;27;19916;-47
2023/05/26 11:30:11;;;;;;;;;;;18.10;80.20;;;;;;5135117;27;19934;-46
2023/05/26 11:32:43;;;;;;;;;;;18.10;80.60;;;;;;5135106;27;19911;-51
2023/05/26 11:35:20;;;;;;;;;;;18.10;79.60;;;;;;5133708;27;20033;-47
2023/05/26 11:37:45;;;;;;;;;;;18.10;80.60;;;;;;5134061;27;20411;-45
2023/05/26 11:40:11;;;;;;;;;;;18.20;79.70;;;;;;5132688;27;19907;-47
2023/05/26 11:42:37;;;;;;;;;;;18.20;79.40;;;;;;5131198;27;19919;-46
2023/05/26 11:45:02;;;;;;;;;;;18.30;79.30;;;;;;5133739;27;19918;-48
2023/05/26 11:47:29;;;;;;;;;;;18.30;78.90;;;;;;5135166;27;19919;-44
2023/05/26 11:49:55;;;;;;;;;;;18.30;78.00;;;;;;5124348;27;19907;-44
2023/05/26 11:52:23;;;;;;;;;;;18.30;79.10;;;;;;5133131;27;19971;-46
2023/05/26 11:54:49;;;;;;;;;;;18.40;79.10;;;;;;5133853;27;20011;-46
2023/05/26 11:57:24;;;;;;;;;;;18.40;78.20;;;;;;5116588;27;19919;-47
2023/05/26 11:59:51;;;;;;;;;;;18.40;77.60;;;;;;5115941;27;19998;-46
2023/05/26 12:02:16;;;;;;;;;;;18.40;78.20;;;;;;5133964;27;19951;-46
2023/05/26 12:04:42;;;;;;;;;;;18.40;78.10;;;;;;5129433;27;19961;-45
2023/05/26 12:07:07;;;;;;;;;;;18.40;76.80;;;;;;5131100;27;20381;-46
2023/05/26 12:09:33;;;;;;;;;;;18.50;77.70;;;;;;5125169;27;19969;-49
2023/05/26 12:11:58;;;;;;;;;;;18.50;77.70;;;;;;5130356;27;20273;-46
2023/05/26 12:14:24;;;;;;;;;;;18.60;78.20;;;;;;5130716;27;19915;-46
2023/05/26 12:16:50;;;;;;;;;;;18.80;76.70;;;;;;5133611;27;19938;-47
2023/05/26 12:19:24;;;;;;;;;;;18.90;76.70;;;;;;5131087;27;19907;-49
2023/05/26 12:21:50;;;;;;;;;;;19.00;75.00;;;;;;5125298;27;20343;-45
2023/05/26 12:24:28;;;;;;;;;;;19.00;76.40;;;;;;5125069;27;19907;-47
2023/05/26 12:26:54;;;;;;;;;;;19.10;74.70;;;;;;5128453;27;20282;-46
2023/05/26 12:29:19;;;;;;;;;;;19.10;71.70;;;;;;5133681;27;19918;-46
2023/05/26 12:31:46;;;;;;;;;;;19.20;74.20;;;;;;5112470;27;19911;-45
2023/05/26 12:34:17;;;;;;;;;;;19.40;73.70;;;;;;5120451;27;19918;-46
2023/05/26 12:36:43;;;;;;;;;;;19.50;72.50;;;;;;5127121;27;19923;-46
2023/05/26 12:39:08;;;;;;;;;;;19.60;71.40;;;;;;5130446;27;19912;-46
2023/05/26 12:41:35;;;;;;;;;;;19.80;72.90;;;;;;5121758;27;19916;-45
2023/05/26 12:44:04;;;;;;;;;;;20.10;71.50;;;;;;5129268;27;20357;-45
2023/05/26 12:46:29;;;;;;;;;;;20.30;70.00;;;;;;5133448;27;19912;-45
2023/05/26 12:48:55;;;;;;;;;;;20.30;70.00;;;;;;5133842;27;19965;-45
2023/05/26 12:51:21;;;;;;;;;;;20.40;70.40;;;;;;5130204;27;20045;-50
2023/05/26 12:53:47;;;;;;;;;;;20.40;71.40;;;;;;5131955;27;20005;-49
2023/05/26 12:56:12;;;;;;;;;;;20.40;68.40;;;;;;5123102;27;19912;-46
2023/05/26 12:58:40;;;;;;;;;;;20.40;67.40;;;;;;5116567;27;19912;-47
2023/05/26 13:01:06;;;;;;;;;;;20.60;68.20;;;;;;5132262;27;20430;-46
2023/05/26 13:03:32;;;;;;;;;;;20.70;67.30;;;;;;5129002;27;19912;-46
2023/05/26 13:05:57;;;;;;;;;;;20.70;66.70;;;;;;5124647;27;19957;-48
2023/05/26 13:08:23;;;;;;;;;;;20.80;65.30;;;;;;5123388;27;20363;-48
2023/05/26 13:10:48;;;;;;;;;;;21.00;63.80;;;;;;5125705;27;19915;-46
2023/05/26 13:13:14;;;;;;;;;;;21.00;64.30;;;;;;5133193;27;19912;-45
2023/05/26 13:15:40;;;;;;;;;;;21.30;64.50;;;;;;5132566;27;20014;-45
2023/05/26 13:18:05;;;;;;;;;;;21.40;64.40;;;;;;5132864;27;19998;-44
2023/05/26 13:20:31;;;;;;;;;;;21.70;63.60;;;;;;5130698;27;19911;-47
2023/05/26 13:22:57;;;;;;;;;;;21.90;63.50;;;;;;5133533;27;19908;-45
2023/05/26 13:25:22;;;;;;;;;;;21.90;61.40;;;;;;5132983;27;19907;-47
2023/05/26 13:27:48;;;;;;;;;;;22.00;61.90;;;;;;5131263;27;19942;-46
2023/05/26 13:30:14;;;;;;;;;;;22.10;61.90;;;;;;5133797;27;20010;-45
2023/05/26 13:32:40;;;;;;;;;;;22.30;61.60;;;;;;5132318;27;19916;-46
2023/05/26 13:35:06;;;;;;;;;;;22.30;62.10;;;;;;5133159;27;19975;-44
2023/05/26 13:37:31;;;;;;;;;;;22.10;61.40;;;;;;5132545;27;19907;-45
2023/05/26 13:39:57;;;;;;;;;;;21.90;61.10;;;;;;5112597;28;19929;-45
2023/05/26 13:42:23;;;;;;;;;;;22.00;61.40;;;;;;5125130;27;20298;-47
2023/05/26 13:44:48;;;;;;;;;;;22.20;61.20;;;;;;5133162;27;19911;-44
2023/05/26 13:47:13;;;;;;;;;;;22.40;60.00;;;;;;5132857;27;19919;-46
2023/05/26 13:49:39;;;;;;;;;;;22.60;60.90;;;;;;5133172;27;20358;-45
2023/05/26 13:52:04;;;;;;;;;;;22.60;60.10;;;;;;5131975;27;20014;-48
2023/05/26 13:54:30;;;;;;;;;;;22.60;59.00;;;;;;5130632;27;19960;-46
2023/05/26 13:56:56;;;;;;;;;;;22.80;60.70;;;;;;5112631;27;20360;-47
2023/05/26 13:59:22;;;;;;;;;;;23.10;59.90;;;;;;5115222;27;20003;-47
2023/05/26 14:01:48;;;;;;;;;;;23.40;59.70;;;;;;5131876;27;20281;-48
2023/05/26 14:04:13;;;;;;;;;;;23.40;58.90;;;;;;5130471;27;20015;-46
2023/05/26 14:06:39;;;;;;;;;;;23.40;58.40;;;;;;5126606;27;20018;-46
2023/05/26 14:09:05;;;;;;;;;;;23.50;58.50;;;;;;5115265;27;19945;-44
2023/05/26 14:11:31;;;;;;;;;;;23.50;57.90;;;;;;5123946;28;19916;-47
2023/05/26 14:13:56;;;;;;;;;;;23.50;57.20;;;;;;5123159;27;19911;-49
2023/05/26 14:16:22;;;;;;;;;;;23.20;57.00;;;;;;5126661;28;19926;-46
2023/05/26 14:18:47;;;;;;;;;;;23.00;58.20;;;;;;5129743;28;19911;-46